Time;durP1;ratioP1;P1;durP2;ratioP2;P2;SDS_P1;SDS_P2;PMS_P1;PMS_P2;Temp;Humidity;BMP_temperature;BMP_pressure;BME280_temperature;BME280_humidity;BME280_pressure;Samples;Min_cycle;Max_cycle;Signal;HPM_P1;HPM_P2
2023/07/09 00:00:51;;;;;;;7.30;4.05;;;;;;;24.47;65.30;101460.38;4990569;28;20060;-74
2023/07/09 00:03:19;;;;;;;10.02;4.80;;;;;;;24.38;64.83;101455.69;5004012;28;20034;-73
2023/07/09 00:05:47;;;;;;;9.10;5.28;;;;;;;24.20;64.86;101460.03;4998511;28;20042;-74
2023/07/09 00:08:31;;;;;;;9.63;5.53;;;;;;;24.19;65.00;101453.16;5023597;28;20037;-73
2023/07/09 00:10:57;;;;;;;9.65;5.03;;;;;;;24.05;65.57;101455.25;5001727;28;20042;-74
2023/07/09 00:13:24;;;;;;;8.25;5.10;;;;;;;24.04;65.60;101442.22;5002326;28;20041;-73
2023/07/09 00:15:50;;;;;;;9.95;5.40;;;;;;;24.03;65.58;101451.19;5003231;28;20020;-73
2023/07/09 00:18:16;;;;;;;7.65;4.50;;;;;;;24.04;65.59;101456.25;5002406;28;20034;-73
2023/07/09 00:20:43;;;;;;;7.95;5.10;;;;;;;24.06;65.64;101454.19;5004625;28;20037;-73
2023/07/09 00:23:13;;;;;;;10.38;5.03;;;;;;;24.06;66.03;101454.19;4990035;28;20060;-72
2023/07/09 00:25:44;;;;;;;10.43;5.40;;;;;;;24.02;66.13;101457.53;5003781;28;20061;-74
2023/07/09 00:28:17;;;;;;;8.15;5.00;;;;;;;23.93;66.31;101453.63;5003902;28;20033;-73
2023/07/09 00:30:44;;;;;;;9.35;5.05;;;;;;;23.84;66.72;101458.44;5002209;28;20060;-72
2023/07/09 00:33:14;;;;;;;8.90;5.20;;;;;;;23.79;66.82;101456.47;4989015;28;20034;-73
2023/07/09 00:35:42;;;;;;;9.50;4.85;;;;;;;23.77;66.93;101457.69;5006372;28;20042;-74
2023/07/09 00:38:17;;;;;;;9.55;4.90;;;;;;;23.76;66.92;101458.75;4986814;28;20029;-74
2023/07/09 00:41:03;;;;;;;10.32;4.47;;;;;;;23.75;67.51;101457.91;4988851;28;20034;-73
2023/07/09 00:43:35;;;;;;;10.35;5.25;;;;;;;23.72;68.20;101450.44;5011157;28;20037;-74
2023/07/09 00:46:29;;;;;;;10.02;4.82;;;;;;;23.65;69.10;101452.38;5030779;28;20034;-73
2023/07/09 00:48:57;;;;;;;12.27;5.22;;;;;;;23.62;69.26;101453.66;4935977;28;20039;-73
2023/07/09 00:51:25;;;;;;;8.40;4.82;;;;;;;23.59;69.41;101455.94;5006584;28;20044;-74
2023/07/09 00:53:54;;;;;;;8.77;4.60;;;;;;;23.61;69.28;101453.88;5004822;28;20050;-73
2023/07/09 00:56:40;;;;;;;7.70;5.13;;;;;;;23.58;69.80;101459.63;5024810;28;20042;-73
2023/07/09 00:59:11;;;;;;;9.00;4.80;;;;;;;23.52;69.75;101456.03;5005423;28;20413;-73
2023/07/09 01:01:40;;;;;;;9.70;5.00;;;;;;;23.48;70.04;101458.31;4994140;28;20029;-74
2023/07/09 01:04:08;;;;;;;8.60;5.13;;;;;;;23.47;69.86;101455.91;4986339;28;20073;-74
2023/07/09 01:06:39;;;;;;;8.70;5.53;;;;;;;23.47;70.23;101451.44;5009187;28;20038;-74
2023/07/09 01:09:05;;;;;;;8.40;4.63;;;;;;;23.45;70.26;101460.59;5009133;28;20061;-73
2023/07/09 01:11:32;;;;;;;6.55;4.70;;;;;;;23.39;70.76;101456.22;4991672;28;20032;-74
2023/07/09 01:14:05;;;;;;;8.07;4.85;;;;;;;23.34;71.01;101451.63;5008935;28;20137;-74
2023/07/09 01:16:37;;;;;;;9.07;4.50;;;;;;;23.33;71.11;101458.72;5008205;28;20048;-72
2023/07/09 01:19:04;;;;;;;8.50;4.95;;;;;;;23.32;71.09;101446.56;5004131;28;20053;-74
2023/07/09 01:21:29;;;;;;;12.18;5.18;;;;;;;23.30;71.13;101451.28;5006361;28;20524;-74
2023/07/09 01:23:57;;;;;;;7.57;4.80;;;;;;;23.19;71.72;101462.63;5009177;28;20485;-74
2023/07/09 01:26:25;;;;;;;8.98;5.35;;;;;;;23.07;72.02;101457.25;5008070;28;20489;-73
2023/07/09 01:28:53;;;;;;;7.72;4.57;;;;;;;23.01;72.16;101458.13;5023294;28;20037;-74
2023/07/09 01:31:20;;;;;;;9.55;5.20;;;;;;;23.00;72.31;101467.09;5012442;28;20044;-73
2023/07/09 01:33:46;;;;;;;8.25;5.30;;;;;;;23.03;72.23;101466.66;4990155;28;20493;-72
2023/07/09 01:36:17;;;;;;;9.60;4.75;;;;;;;23.00;72.41;101475.03;5010952;28;20476;-74
2023/07/09 01:38:44;;;;;;;10.52;4.88;;;;;;;22.96;72.72;101471.19;5011905;28;20069;-73
2023/07/09 01:41:13;;;;;;;9.07;4.63;;;;;;;22.93;72.90;101469.81;5008079;28;20030;-73
2023/07/09 01:43:41;;;;;;;9.13;4.82;;;;;;;22.95;72.81;101461.66;5008917;28;20049;-73
2023/07/09 01:46:08;;;;;;;8.55;5.32;;;;;;;22.94;72.81;101470.63;5025771;28;20041;-73
2023/07/09 01:48:40;;;;;;;12.23;5.75;;;;;;;22.92;72.97;101467.38;5021612;28;20042;-74
2023/07/09 01:51:16;;;;;;;12.32;5.32;;;;;;;22.88;73.14;101461.72;5006265;28;20033;-74
2023/07/09 01:53:44;;;;;;;10.63;4.78;;;;;;;22.84;73.58;101460.56;5006339;28;20041;-74
2023/07/09 01:56:10;;;;;;;8.57;4.90;;;;;;;22.82;73.51;101459.97;5010232;28;20509;-73
2023/07/09 01:58:36;;;;;;;8.07;4.78;;;;;;;22.81;73.58;101462.84;4989892;28;20034;-74
2023/07/09 02:01:02;;;;;;;9.13;4.75;;;;;;;22.82;72.98;101464.47;4991745;28;20041;-72
2023/07/09 02:03:28;;;;;;;8.73;4.45;;;;;;;22.82;72.86;101464.47;5009332;28;20456;-74
2023/07/09 02:05:53;;;;;;;9.30;5.40;;;;;;;22.80;72.97;101462.03;5004038;28;20022;-72
2023/07/09 02:08:21;;;;;;;9.10;5.00;;;;;;;22.80;73.11;101467.34;5000402;28;20026;-74
2023/07/09 02:10:50;;;;;;;10.13;4.90;;;;;;;22.77;73.33;101464.31;5010817;28;21670;-72
2023/07/09 02:13:16;;;;;;;12.90;5.40;;;;;;;22.75;73.53;101467.19;5002098;28;20050;-73
2023/07/09 02:15:43;;;;;;;8.57;5.60;;;;;;;22.68;73.60;101469.91;5006762;28;20046;-74
2023/07/09 02:18:11;;;;;;;10.90;5.10;;;;;;;22.54;74.33;101466.59;5005969;28;20045;-73
2023/07/09 02:20:36;;;;;;;11.70;5.00;;;;;;;22.40;74.77;101462.47;4989816;28;20128;-73
2023/07/09 02:23:02;;;;;;;8.27;4.93;;;;;;;22.29;75.14;101460.56;5006513;28;20554;-73
2023/07/09 02:25:29;;;;;;;10.52;5.00;;;;;;;22.22;75.48;101460.56;5002993;28;20049;-74
2023/07/09 02:27:55;;;;;;;9.90;4.85;;;;;;;22.23;75.58;101464.84;4991257;28;20025;-74
2023/07/09 02:30:20;;;;;;;10.18;5.10;;;;;;;22.24;75.75;101463.00;5005060;28;20509;-73
2023/07/09 02:32:46;;;;;;;8.75;5.40;;;;;;;22.25;75.50;101462.81;5010733;28;20033;-74
2023/07/09 02:35:11;;;;;;;9.73;5.07;;;;;;;22.27;75.79;101473.19;5003295;28;20524;-74
2023/07/09 02:37:37;;;;;;;11.00;5.55;;;;;;;22.25;75.62;101478.69;5007882;28;20037;-74
2023/07/09 02:40:04;;;;;;;10.73;5.32;;;;;;;22.25;75.87;101475.19;5003181;28;20033;-74
2023/07/09 02:42:30;;;;;;;9.95;5.55;;;;;;;22.19;76.54;101470.75;5005870;28;20112;-73
2023/07/09 02:44:55;;;;;;;9.65;5.13;;;;;;;22.15;76.66;101471.22;5008646;28;20124;-74
2023/07/09 02:47:24;;;;;;;9.77;5.72;;;;;;;22.15;76.22;101467.75;5007004;28;20022;-74
2023/07/09 02:49:52;;;;;;;9.43;4.97;;;;;;;22.13;76.55;101469.81;5004941;28;20046;-74
2023/07/09 02:52:17;;;;;;;9.93;5.15;;;;;;;22.07;76.79;101470.66;5005146;28;20034;-73
2023/07/09 02:54:42;;;;;;;7.38;5.10;;;;;;;22.05;77.23;101472.72;5004223;28;20416;-73
2023/07/09 02:57:08;;;;;;;8.93;4.72;;;;;;;22.03;77.07;101480.06;4993844;28;20475;-74
2023/07/09 02:59:34;;;;;;;9.82;4.93;;;;;;;22.01;77.15;101476.81;5009007;28;20042;-73
2023/07/09 03:02:01;;;;;;;7.43;5.25;;;;;;;21.96;77.46;101466.91;4988713;28;20037;-74
2023/07/09 03:04:26;;;;;;;9.30;5.03;;;;;;;21.89;77.68;101472.25;5004451;28;20037;-73
2023/07/09 03:06:52;;;;;;;8.20;4.50;;;;;;;21.80;78.12;101475.38;5005777;28;20386;-73
2023/07/09 03:09:19;;;;;;;9.88;4.82;;;;;;;21.71;78.64;101480.88;5022665;28;20045;-74
2023/07/09 03:11:44;;;;;;;7.95;4.97;;;;;;;21.70;78.62;101481.09;4990542;28;20038;-74
2023/07/09 03:14:10;;;;;;;10.50;4.85;;;;;;;21.70;78.87;101484.56;5007362;28;20419;-74
2023/07/09 03:16:35;;;;;;;9.45;4.88;;;;;;;21.72;78.50;101477.25;4995791;28;20033;-72
2023/07/09 03:19:03;;;;;;;9.55;5.65;;;;;;;21.71;78.44;101480.88;5004666;28;20060;-74
2023/07/09 03:21:29;;;;;;;10.38;5.25;;;;;;;21.64;78.83;101481.97;5011402;28;20033;-73
2023/07/09 03:23:55;;;;;;;7.82;5.05;;;;;;;21.55;79.20;101478.78;5007782;28;20452;-74
2023/07/09 03:26:21;;;;;;;8.15;5.30;;;;;;;21.48;79.77;101484.09;4994521;28;20042;-74
2023/07/09 03:28:47;;;;;;;11.80;6.28;;;;;;;21.45;79.61;101483.69;5003072;28;20037;-74
2023/07/09 03:31:12;;;;;;;10.35;5.35;;;;;;;21.38;80.00;101489.00;5006782;28;20041;-72
2023/07/09 03:33:38;;;;;;;13.10;5.90;;;;;;;21.34;80.60;101493.03;5011992;28;20045;-74
2023/07/09 03:36:06;;;;;;;10.95;5.78;;;;;;;21.29;80.72;101498.16;5006214;28;20029;-73
2023/07/09 03:38:33;;;;;;;8.45;5.53;;;;;;;21.32;80.51;101508.28;4993999;28;20038;-72
2023/07/09 03:40:59;;;;;;;9.63;5.30;;;;;;;21.33;80.72;101499.34;5004881;28;20026;-72
2023/07/09 03:43:24;;;;;;;11.68;5.15;;;;;;;21.35;80.73;101500.75;5007264;28;20030;-72
2023/07/09 03:45:50;;;;;;;9.30;5.25;;;;;;;21.35;80.69;101495.47;5010345;28;20042;-74
2023/07/09 03:48:17;;;;;;;7.10;5.22;;;;;;;21.30;80.82;101502.41;5004149;28;20044;-74
2023/07/09 03:50:44;;;;;;;13.00;5.90;;;;;;;21.19;81.46;101499.41;5009842;28;20049;-74
2023/07/09 03:53:10;;;;;;;11.88;5.60;;;;;;;21.16;81.22;101507.75;5002654;28;20374;-74
2023/07/09 03:55:35;;;;;;;10.85;5.53;;;;;;;21.19;81.12;101507.34;5003856;28;20065;-74
2023/07/09 03:58:04;;;;;;;12.82;5.63;;;;;;;21.22;80.91;101505.28;5003605;28;20033;-74
2023/07/09 04:00:30;;;;;;;12.45;5.78;;;;;;;21.20;80.88;101501.03;5005560;28;20050;-74
2023/07/09 04:02:56;;;;;;;8.20;5.43;;;;;;;21.25;80.87;101505.69;5007473;28;20037;-74
2023/07/09 04:05:23;;;;;;;11.00;5.82;;;;;;;21.30;80.59;101503.22;5008261;28;20037;-73
2023/07/09 04:07:49;;;;;;;10.75;6.07;;;;;;;21.27;80.48;101503.66;5007051;28;20034;-74
2023/07/09 04:10:15;;;;;;;10.30;6.13;;;;;;;21.19;80.77;101502.06;5009278;28;20100;-74
2023/07/09 04:12:41;;;;;;;18.27;5.70;;;;;;;21.21;80.97;101504.50;5006680;28;20113;-74
2023/07/09 04:15:07;;;;;;;11.57;5.78;;;;;;;21.17;80.96;101503.28;4986885;28;20392;-73
2023/07/09 04:17:32;;;;;;;12.02;6.15;;;;;;;21.17;81.29;101504.09;5005298;28;20484;-73
2023/07/09 04:19:58;;;;;;;13.05;5.47;;;;;;;21.22;81.53;101507.94;5007066;28;20061;-74
2023/07/09 04:22:23;;;;;;;10.27;5.68;;;;;;;21.30;81.04;101499.78;5006610;28;20092;-72
2023/07/09 04:24:49;;;;;;;11.82;5.47;;;;;;;21.36;81.24;101512.09;4988080;28;20042;-74
2023/07/09 04:27:15;;;;;;;12.35;5.82;;;;;;;21.41;81.03;101503.56;4991576;28;20038;-73
2023/07/09 04:29:41;;;;;;;16.05;5.63;;;;;;;21.43;81.17;101509.44;5006025;28;20050;-73
2023/07/09 04:32:16;;;;;;;10.38;5.80;;;;;;;21.42;81.19;101510.47;5004087;28;20026;-74
2023/07/09 04:34:41;;;;;;;9.02;5.22;;;;;;;21.37;81.29;101511.09;5001648;28;20056;-74
2023/07/09 04:37:08;;;;;;;11.23;6.50;;;;;;;21.31;81.53;101504.03;5005344;28;20030;-74
2023/07/09 04:39:34;;;;;;;27.35;7.95;;;;;;;21.29;80.59;101506.88;5006842;28;20069;-73
2023/07/09 04:42:01;;;;;;;13.52;6.43;;;;;;;21.23;81.26;101502.44;5003130;28;20142;-74
2023/07/09 04:44:27;;;;;;;15.25;7.05;;;;;;;21.30;81.03;101507.69;5004870;28;20128;-74
2023/07/09 04:46:52;;;;;;;11.13;5.47;;;;;;;21.25;81.37;101507.50;4989662;28;20026;-74
2023/07/09 04:49:17;;;;;;;14.90;7.22;;;;;;;21.28;81.29;101505.25;5004343;28;20045;-74
2023/07/09 04:51:43;;;;;;;12.65;6.25;;;;;;;21.38;80.74;101500.34;5007325;28;20041;-74
2023/07/09 04:54:08;;;;;;;13.95;6.88;;;;;;;21.37;80.56;101508.47;5005101;28;20045;-72
2023/07/09 04:56:34;;;;;;;11.13;6.18;;;;;;;21.40;81.18;101502.78;5007196;28;20025;-73
2023/07/09 04:58:59;;;;;;;13.50;6.22;;;;;;;21.45;80.64;101500.31;5002000;28;20038;-75
2023/07/09 05:01:25;;;;;;;20.40;7.53;;;;;;;21.51;80.47;101498.66;4987764;28;20037;-73
2023/07/09 05:03:50;;;;;;;10.00;5.85;;;;;;;21.51;80.23;101493.41;5005833;28;20057;-74
2023/07/09 05:06:16;;;;;;;13.18;7.07;;;;;;;21.55;79.94;101494.63;5008010;28;20038;-76
2023/07/09 05:08:42;;;;;;;15.40;6.22;;;;;;;21.64;79.99;101493.31;5004727;28;20046;-74
2023/07/09 05:11:08;;;;;;;17.27;6.22;;;;;;;21.68;79.62;101493.69;5015592;28;20054;-74
2023/07/09 05:13:34;;;;;;;12.35;6.35;;;;;;;21.68;79.51;101499.81;5006933;28;20065;-74
2023/07/09 05:15:59;;;;;;;11.65;6.07;;;;;;;21.75;79.26;101502.38;5007400;28;20030;-74
2023/07/09 05:18:25;;;;;;;12.30;6.20;;;;;;;21.74;78.63;101503.41;4988600;28;20034;-75
2023/07/09 05:20:50;;;;;;;13.02;6.68;;;;;;;21.86;78.14;101496.41;4991925;28;20060;-74
2023/07/09 05:23:16;;;;;;;14.93;6.15;;;;;;;21.81;78.64;101504.16;5007965;28;20496;-74
2023/07/09 05:25:41;;;;;;;14.48;6.90;;;;;;;21.90;78.66;101502.88;5002478;28;20053;-73
2023/07/09 05:28:07;;;;;;;12.00;6.10;;;;;;;22.03;78.57;101501.97;5003523;28;20033;-74
2023/07/09 05:30:32;;;;;;;10.73;6.30;;;;;;;21.99;79.04;101503.44;5010612;28;20522;-74
2023/07/09 05:32:59;;;;;;;14.32;6.63;;;;;;;22.01;79.02;101501.38;5001232;28;20073;-74
2023/07/09 05:35:25;;;;;;;9.70;6.05;;;;;;;22.11;78.31;101504.38;5005759;28;20041;-75
2023/07/09 05:37:52;;;;;;;12.18;6.55;;;;;;;22.22;78.10;101494.91;5008383;28;20511;-72
2023/07/09 05:40:18;;;;;;;14.90;6.88;;;;;;;22.42;77.13;101501.91;5005483;28;20130;-74
2023/07/09 05:42:43;;;;;;;14.40;7.18;;;;;;;22.41;77.10;101497.63;5007724;28;20080;-75
2023/07/09 05:45:10;;;;;;;15.35;6.72;;;;;;;22.53;77.09;101499.34;5005499;28;20053;-75
2023/07/09 05:47:36;;;;;;;15.02;6.93;;;;;;;22.65;77.30;101495.97;5005499;28;20049;-72
2023/07/09 05:50:02;;;;;;;20.27;6.65;;;;;;;22.70;76.57;101501.41;5003020;28;20428;-72
2023/07/09 05:52:29;;;;;;;12.10;5.97;;;;;;;22.82;76.41;101498.84;5006681;28;20520;-72
2023/07/09 05:54:55;;;;;;;12.52;6.15;;;;;;;23.00;75.45;101498.00;5007060;28;20061;-73
2023/07/09 05:57:21;;;;;;;12.57;6.50;;;;;;;23.14;74.89;101494.22;5009796;28;20033;-75
2023/07/09 05:59:46;;;;;;;13.05;6.53;;;;;;;23.25;74.51;101500.59;5012531;28;20037;-73
2023/07/09 06:02:17;;;;;;;18.73;7.30;;;;;;;23.45;74.64;101498.50;4990344;28;20065;-74
2023/07/09 06:04:43;;;;;;;15.23;6.38;;;;;;;23.66;73.51;101499.81;5007469;28;20068;-73
2023/07/09 06:07:09;;;;;;;14.65;6.28;;;;;;;23.70;73.21;101494.88;5010508;28;20401;-75
2023/07/09 06:09:35;;;;;;;14.73;6.70;;;;;;;23.70;72.59;101498.31;5009136;28;20037;-74
2023/07/09 06:12:02;;;;;;;14.32;6.20;;;;;;;23.86;71.95;101496.06;5010564;28;20038;-75
2023/07/09 06:14:28;;;;;;;15.40;6.53;;;;;;;24.06;71.29;101498.41;5007974;28;20510;-75
2023/07/09 06:16:53;;;;;;;16.30;6.50;;;;;;;24.19;70.72;101498.19;4992814;28;20032;-74
2023/07/09 06:19:19;;;;;;;16.48;6.45;;;;;;;24.32;70.45;101491.03;5005875;28;20041;-73
2023/07/09 06:21:44;;;;;;;11.20;6.60;;;;;;;24.42;69.54;101496.56;5008122;28;20468;-75
2023/07/09 06:24:10;;;;;;;14.45;5.88;;;;;;;24.51;68.98;101495.19;5005689;28;20500;-74
2023/07/09 06:26:36;;;;;;;10.27;5.45;;;;;;;24.66;69.63;101495.53;4993562;28;20026;-75
2023/07/09 06:29:02;;;;;;;15.25;7.13;;;;;;;24.97;68.73;101500.66;5005971;28;20061;-74
2023/07/09 06:31:27;;;;;;;10.48;5.47;;;;;;;25.17;68.33;101506.34;5006738;28;20507;-75
2023/07/09 06:33:53;;;;;;;10.88;5.57;;;;;;;25.43;67.72;101502.34;5003767;28;20151;-74
2023/07/09 06:36:19;;;;;;;11.57;5.70;;;;;;;25.71;65.20;101492.75;5022907;28;20668;-75
2023/07/09 06:38:45;;;;;;;11.43;5.93;;;;;;;25.78;65.15;101500.53;5011719;28;20046;-74
2023/07/09 06:41:11;;;;;;;14.20;6.00;;;;;;;26.05;64.33;101507.88;5011236;28;20041;-75
2023/07/09 06:43:40;;;;;;;14.70;6.40;;;;;;;26.23;64.16;101511.09;5008835;28;20130;-75
2023/07/09 06:46:09;;;;;;;25.50;9.30;;;;;;;26.28;62.80;101510.38;5024497;28;20041;-75
2023/07/09 06:48:35;;;;;;;14.50;5.50;;;;;;;26.43;61.96;101499.16;4987238;28;20036;-76
2023/07/09 06:51:01;;;;;;;15.50;6.03;;;;;;;26.57;62.22;101500.38;5007367;28;20461;-75
2023/07/09 06:53:27;;;;;;;11.45;5.32;;;;;;;26.82;61.32;101507.09;5008902;28;20021;-75
2023/07/09 06:55:55;;;;;;;9.35;5.68;;;;;;;27.03;60.37;101505.50;5007161;28;20048;-75
2023/07/09 06:58:22;;;;;;;11.05;5.35;;;;;;;27.28;59.77;101506.84;5008070;28;20029;-75
2023/07/09 07:00:49;;;;;;;11.85;5.85;;;;;;;27.27;59.18;101510.53;4990709;28;20413;-75
2023/07/09 07:03:15;;;;;;;12.52;5.38;;;;;;;27.32;59.06;101505.28;5010481;28;20049;-74
2023/07/09 07:05:49;;;;;;;12.82;5.75;;;;;;;27.54;58.08;101502.56;4996147;28;20038;-77
2023/07/09 07:08:17;;;;;;;12.23;5.47;;;;;;;27.53;57.78;101504.41;5021997;28;20091;-74
2023/07/09 07:10:43;;;;;;;14.43;4.95;;;;;;;27.80;57.25;101502.75;5007766;28;20042;-75
2023/07/09 07:13:09;;;;;;;15.27;5.25;;;;;;;28.11;56.01;101501.94;4992387;28;20080;-75
2023/07/09 07:15:37;;;;;;;11.77;6.25;;;;;;;28.30;55.09;101497.00;4991111;28;20658;-74
2023/07/09 07:18:03;;;;;;;11.05;4.85;;;;;;;28.72;54.59;101498.00;5009741;28;20029;-74
2023/07/09 07:20:30;;;;;;;10.05;4.90;;;;;;;28.91;53.99;101491.16;5006970;28;20104;-75
2023/07/09 07:22:56;;;;;;;10.82;4.88;;;;;;;28.90;52.78;101494.88;5011307;28;20022;-76
2023/07/09 07:25:21;;;;;;;8.55;4.57;;;;;;;29.25;52.70;101485.38;5021536;28;20720;-77
2023/07/09 07:27:47;;;;;;;11.75;5.20;;;;;;;29.20;51.73;101492.59;5009857;28;20047;-75
2023/07/09 07:30:13;;;;;;;10.35;5.28;;;;;;;29.44;51.91;101479.50;5010444;28;20061;-76
2023/07/09 07:32:43;;;;;;;9.75;5.07;;;;;;;29.61;51.90;101482.72;5011917;28;20034;-76
2023/07/09 07:35:09;;;;;;;10.88;4.85;;;;;;;30.06;50.86;101478.44;5009994;28;20045;-76
2023/07/09 07:37:34;;;;;;;11.18;5.70;;;;;;;30.26;49.34;101485.56;5009575;28;20026;-75
2023/07/09 07:40:00;;;;;;;8.10;4.45;;;;;;;30.40;49.39;101485.84;5009318;28;20037;-74
2023/07/09 07:42:26;;;;;;;11.82;5.07;;;;;;;30.77;48.55;101481.91;5007131;28;20033;-75
2023/07/09 07:44:52;;;;;;;10.23;5.28;;;;;;;31.07;47.86;101488.22;5002511;28;20092;-74
2023/07/09 07:47:18;;;;;;;12.25;5.00;;;;;;;30.99;47.19;101486.91;4997464;28;20045;-75
2023/07/09 07:49:43;;;;;;;11.55;4.45;;;;;;;31.25;47.34;101481.41;5010336;28;20060;-74
2023/07/09 07:52:10;;;;;;;8.90;4.22;;;;;;;31.38;46.22;101471.91;5012785;28;20034;-76
2023/07/09 07:54:35;;;;;;;11.32;4.93;;;;;;;31.53;46.22;101479.88;4991431;28;20091;-76
2023/07/09 07:57:01;;;;;;;10.95;4.75;;;;;;;31.58;45.79;101477.13;5005982;28;20029;-74
2023/07/09 07:59:27;;;;;;;10.27;4.82;;;;;;;31.90;45.54;101474.97;5010765;28;20076;-75
2023/07/09 08:01:52;;;;;;;11.60;4.55;;;;;;;32.12;44.04;101464.56;5006517;28;20511;-74
2023/07/09 08:04:18;;;;;;;9.23;5.05;;;;;;;31.72;45.23;101473.78;4992065;28;20073;-75
2023/07/09 08:06:43;;;;;;;10.80;4.00;;;;;;;31.90;45.25;101480.31;5010503;28;20543;-76
2023/07/09 08:09:09;;;;;;;8.85;4.45;;;;;;;32.24;44.09;101479.47;4993703;28;20042;-75
2023/07/09 08:11:34;;;;;;;8.80;4.70;;;;;;;32.25;44.21;101471.13;5010710;28;20099;-74
2023/07/09 08:14:00;;;;;;;12.27;4.53;;;;;;;32.32;43.29;101476.91;5006001;28;20530;-75
2023/07/09 08:16:26;;;;;;;9.30;4.68;;;;;;;32.86;42.97;101466.84;5008616;28;20049;-75
2023/07/09 08:18:52;;;;;;;11.02;4.60;;;;;;;32.99;41.65;101459.97;5006302;28;20056;-77
2023/07/09 08:21:18;;;;;;;9.05;4.43;;;;;;;33.35;41.76;101459.44;5013477;28;20026;-76
2023/07/09 08:23:45;;;;;;;8.60;4.72;;;;;;;33.31;41.03;101458.41;5011991;28;20488;-74
2023/07/09 08:26:11;;;;;;;10.15;4.63;;;;;;;33.18;40.92;101454.59;5007739;28;20040;-76
2023/07/09 08:28:37;;;;;;;8.45;4.90;;;;;;;33.06;41.26;101449.66;5003976;28;20029;-75
2023/07/09 08:31:03;;;;;;;15.32;4.63;;;;;;;33.40;40.75;101443.22;5008903;28;20034;-76
2023/07/09 08:33:30;;;;;;;8.10;4.00;;;;;;;33.31;40.20;101448.47;5009695;28;20040;-78
2023/07/09 08:35:56;;;;;;;7.40;3.97;;;;;;;33.24;40.29;101453.41;5011551;28;20022;-75
2023/07/09 08:38:22;;;;;;;9.15;4.38;;;;;;;33.24;40.45;101452.63;5005599;28;20088;-75
2023/07/09 08:40:57;;;;;;;8.20;3.97;;;;;;;33.11;40.11;101454.16;5004659;28;20022;-75
2023/07/09 08:43:39;;;;;;;12.32;4.03;;;;;;;33.51;39.75;101446.50;5006512;28;20038;-76
2023/07/09 08:46:27;;;;;;;11.18;3.90;;;;;;;33.85;40.65;101451.59;5023411;28;20030;-76
2023/07/09 08:48:56;;;;;;;10.52;4.00;;;;;;;34.13;39.91;101447.00;5007561;28;20033;-76
2023/07/09 08:51:29;;;;;;;11.23;3.75;;;;;;;34.17;38.57;101455.28;5003814;28;20034;-78
2023/07/09 08:53:58;;;;;;;7.38;4.45;;;;;;;34.40;39.02;101452.69;5004209;28;20041;-76
2023/07/09 08:56:26;;;;;;;7.07;4.22;;;;;;;34.45;38.56;101460.63;5009390;28;20042;-75
2023/07/09 08:58:55;;;;;;;8.48;4.10;;;;;;;34.63;38.39;101457.00;5000376;28;20052;-75
2023/07/09 09:01:26;;;;;;;11.65;4.68;;;;;;;34.64;37.76;101447.84;5000187;28;20440;-78
2023/07/09 09:03:58;;;;;;;16.45;4.55;;;;;;;34.95;38.43;101446.34;5005471;28;20049;-76
2023/07/09 09:06:30;;;;;;;8.52;3.97;;;;;;;34.93;36.96;101435.09;5006276;28;20552;-74
2023/07/09 09:09:04;;;;;;;8.23;4.40;;;;;;;35.14;37.41;101433.47;5006706;28;20496;-76
2023/07/09 09:11:43;;;;;;;14.73;4.30;;;;;;;35.40;36.80;101430.19;5020527;28;20125;-75
2023/07/09 09:14:33;;;;;;;14.23;3.88;;;;;;;35.33;37.20;101429.81;5003746;28;20057;-75
2023/07/09 09:17:01;;;;;;;10.50;4.55;;;;;;;35.44;37.47;101431.94;5001326;28;20049;-76
2023/07/09 09:19:36;;;;;;;7.55;4.40;;;;;;;35.69;36.50;101418.13;4988435;28;20096;-74
2023/07/09 09:22:08;;;;;;;6.57;4.50;;;;;;;35.75;36.95;101422.25;5008162;28;20114;-75
2023/07/09 09:25:11;;;;;;;10.03;4.70;;;;;;;35.77;35.80;101410.06;4988370;28;20050;-76
2023/07/09 09:27:38;;;;;;;9.25;3.90;;;;;;;36.08;36.32;101411.88;5006763;28;20045;-76
2023/07/09 09:30:04;;;;;;;8.30;4.18;;;;;;;36.29;36.53;101404.00;5009919;28;20500;-76
2023/07/09 09:32:43;;;;;;;6.85;4.15;;;;;;;36.22;35.42;101404.47;4995005;28;20530;-75
2023/07/09 09:35:14;;;;;;;7.53;4.35;;;;;;;36.28;35.34;101404.31;5008143;28;20045;-76
2023/07/09 09:37:39;;;;;;;9.50;3.95;;;;;;;36.18;34.99;101410.81;5010354;28;20033;-75
2023/07/09 09:40:08;;;;;;;7.13;4.75;;;;;;;36.28;35.46;101407.81;5014273;28;20037;-76
2023/07/09 09:42:34;;;;;;;7.18;4.03;;;;;;;36.18;35.42;101413.50;5016601;28;20064;-77
2023/07/09 09:45:01;;;;;;;13.35;4.28;;;;;;;36.15;35.61;101409.50;5010241;28;20129;-78
2023/07/09 09:47:28;;;;;;;9.15;4.45;;;;;;;36.08;34.96;101397.59;5011065;28;20095;-76
2023/07/09 09:49:54;;;;;;;7.32;3.75;;;;;;;36.27;35.46;101391.94;5007912;28;20129;-75
2023/07/09 09:52:19;;;;;;;8.52;4.32;;;;;;;36.58;34.83;101386.38;5015349;28;20878;-77
2023/07/09 09:54:54;;;;;;;8.50;4.40;;;;;;;36.78;34.86;101396.53;4992871;28;20046;-77
2023/07/09 09:57:23;;;;;;;6.47;4.00;;;;;;;36.66;34.00;101387.50;5010785;28;20029;-76
2023/07/09 09:59:49;;;;;;;10.40;4.45;;;;;;;36.54;34.89;101397.00;5017276;28;20056;-76
2023/07/09 10:02:18;;;;;;;9.00;4.65;;;;;;;36.50;34.06;101393.34;4988660;28;20033;-75
2023/07/09 10:04:44;;;;;;;13.07;4.22;;;;;;;36.57;35.08;101376.69;5011465;28;20057;-76
2023/07/09 10:07:21;;;;;;;10.18;4.55;;;;;;;37.02;34.05;101373.63;5014859;28;20030;-76
2023/07/09 10:09:52;;;;;;;9.35;3.80;;;;;;;36.95;33.83;101373.31;5008259;28;20459;-76
2023/07/09 10:12:44;;;;;;;12.77;4.30;;;;;;;37.05;33.25;101375.66;5010227;28;20065;-75
2023/07/09 10:15:25;;;;;;;;;;;;;;;36.68;33.36;101374.50;5011601;28;20041;-75
2023/07/09 10:18:18;;;;;;;8.20;3.72;;;;;;;36.76;33.37;101373.69;4992490;28;19917;-76
2023/07/09 10:20:51;;;;;;;;;;;;;;;36.95;32.87;101387.63;5009894;28;20057;-74
2023/07/09 10:23:25;;;;;;;9.98;4.25;;;;;;;37.32;33.29;101385.31;5020060;28;19917;-74
2023/07/09 10:26:13;;;;;;;6.78;3.63;;;;;;;37.63;32.40;101388.88;5006274;28;20046;-74
2023/07/09 10:28:47;;;;;;;13.38;4.28;;;;;;;37.66;31.17;101386.31;4986272;28;20049;-77
2023/07/09 10:31:15;;;;;;;9.57;4.45;;;;;;;37.55;32.82;101390.47;5005083;28;20481;-75
2023/07/09 10:34:11;;;;;;;9.18;4.18;;;;;;;37.62;32.86;101390.78;5006929;28;20056;-75
2023/07/09 10:37:15;;;;;;;9.18;3.55;;;;;;;37.63;29.66;101389.66;5005235;28;20034;-76
2023/07/09 10:39:47;;;;;;;7.45;3.70;;;;;;;37.59;29.80;101389.47;4913556;29;20051;-78
2023/07/09 10:42:36;;;;;;;5.10;3.22;;;;;;;37.40;31.20;101394.50;4910364;29;20626;-75
2023/07/09 10:45:09;;;;;;;10.48;4.00;;;;;;;37.53;31.79;101385.38;4980877;28;20041;-76
2023/07/09 10:47:39;;;;;;;22.83;5.50;;;;;;;37.43;32.11;101380.34;5001722;28;20049;-73
2023/07/09 10:50:12;;;;;;;13.90;4.38;;;;;;;37.48;31.61;101376.66;5001306;28;20682;-76
2023/07/09 10:52:41;;;;;;;;;;;;;;;37.65;31.83;101371.19;5011771;28;20033;-75
2023/07/09 10:55:16;;;;;;;7.32;3.13;;;;;;;37.74;29.34;101363.81;5008973;28;19996;-78
2023/07/09 10:57:57;;;;;;;11.95;3.95;;;;;;;37.93;29.70;101362.59;4992505;28;20041;-75
2023/07/09 11:00:33;;;;;;;10.82;4.07;;;;;;;37.88;30.63;101355.47;5007706;28;20049;-75
2023/07/09 11:03:03;;;;;;;11.70;4.35;;;;;;;37.98;29.67;101346.16;4999031;28;20116;-75
2023/07/09 11:05:29;;;;;;;7.13;3.85;;;;;;;37.94;30.25;101343.31;5007191;28;20402;-75
2023/07/09 11:08:07;;;;;;;7.03;4.70;;;;;;;37.78;29.72;101337.69;5010251;28;20052;-76
2023/07/09 11:10:39;;;;;;;10.48;3.83;;;;;;;37.77;29.92;101344.22;5007060;28;20053;-76
2023/07/09 11:13:16;;;;;;;6.57;3.38;;;;;;;37.84;29.78;101349.09;5009863;28;20057;-76
2023/07/09 11:15:45;;;;;;;6.85;3.55;;;;;;;37.65;30.64;101343.34;5012273;28;20056;-76
2023/07/09 11:18:22;;;;;;;7.13;3.53;;;;;;;37.67;30.76;101328.38;4994934;28;20041;-75
2023/07/09 11:20:58;;;;;;;10.18;3.50;;;;;;;37.62;29.89;101320.47;4990659;28;20126;-75
2023/07/09 11:23:25;;;;;;;9.25;3.72;;;;;;;37.87;32.15;101328.75;5005067;28;20564;-75
2023/07/09 11:26:13;;;;;;;7.72;3.70;;;;;;;37.97;30.46;101320.22;5005138;28;20128;-75
2023/07/09 11:28:41;;;;;;;9.27;3.63;;;;;;;37.57;29.21;101329.53;4988260;28;20069;-75